sensor_id;sensor_type;location;lat;lon;timestamp;P1;durP1;ratioP1;P2;durP2;ratioP2
7899;SDS011;3995;50.856;4.404;2022-11-20T00:00:39;18.42;;;16.60;;
7899;SDS011;3995;50.856;4.404;2022-11-20T00:03:09;19.02;;;16.98;;
7899;SDS011;3995;50.856;4.404;2022-11-20T00:05:36;19.92;;;17.83;;
7899;SDS011;3995;50.856;4.404;2022-11-20T00:08:04;18.83;;;15.88;;
7899;SDS011;3995;50.856;4.404;2022-11-20T00:10:31;17.73;;;15.82;;
7899;SDS011;3995;50.856;4.404;2022-11-20T00:12:59;19.00;;;15.98;;
7899;SDS011;3995;50.856;4.404;2022-11-20T00:15:26;17.85;;;16.02;;
7899;SDS011;3995;50.856;4.404;2022-11-20T00:17:54;16.45;;;14.75;;
7899;SDS011;3995;50.856;4.404;2022-11-20T00:20:23;17.30;;;15.45;;
7899;SDS011;3995;50.856;4.404;2022-11-20T00:22:51;21.95;;;17.10;;
7899;SDS011;3995;50.856;4.404;2022-11-20T00:25:19;17.77;;;15.45;;
7899;SDS011;3995;50.856;4.404;2022-11-20T00:27:46;17.10;;;15.50;;
7899;SDS011;3995;50.856;4.404;2022-11-20T00:32:41;18.27;;;16.17;;
7899;SDS011;3995;50.856;4.404;2022-11-20T00:35:08;21.92;;;16.67;;
7899;SDS011;3995;50.856;4.404;2022-11-20T00:37:37;17.83;;;15.93;;
7899;SDS011;3995;50.856;4.404;2022-11-20T00:40:06;17.90;;;14.65;;
7899;SDS011;3995;50.856;4.404;2022-11-20T00:42:35;18.70;;;15.00;;
7899;SDS011;3995;50.856;4.404;2022-11-20T00:45:02;16.95;;;15.15;;
7899;SDS011;3995;50.856;4.404;2022-11-20T00:47:30;21.75;;;16.60;;
7899;SDS011;3995;50.856;4.404;2022-11-20T00:49:58;17.05;;;14.90;;
7899;SDS011;3995;50.856;4.404;2022-11-20T00:52:25;18.80;;;15.82;;
7899;SDS011;3995;50.856;4.404;2022-11-20T00:54:54;16.70;;;14.45;;
7899;SDS011;3995;50.856;4.404;2022-11-20T00:57:21;18.50;;;15.35;;
7899;SDS011;3995;50.856;4.404;2022-11-20T00:59:48;16.60;;;14.98;;
7899;SDS011;3995;50.856;4.404;2022-11-20T01:02:16;17.88;;;16.08;;
7899;SDS011;3995;50.856;4.404;2022-11-20T01:04:43;19.70;;;17.40;;
7899;SDS011;3995;50.856;4.404;2022-11-20T01:07:11;20.10;;;18.08;;
7899;SDS011;3995;50.856;4.404;2022-11-20T01:09:39;20.02;;;17.73;;
7899;SDS011;3995;50.856;4.404;2022-11-20T01:12:07;18.92;;;16.90;;
7899;SDS011;3995;50.856;4.404;2022-11-20T01:14:35;19.52;;;17.20;;
7899;SDS011;3995;50.856;4.404;2022-11-20T01:17:02;18.58;;;16.20;;
7899;SDS011;3995;50.856;4.404;2022-11-20T01:19:30;18.50;;;16.50;;
7899;SDS011;3995;50.856;4.404;2022-11-20T01:21:58;19.50;;;16.48;;
7899;SDS011;3995;50.856;4.404;2022-11-20T01:24:25;19.95;;;15.60;;
7899;SDS011;3995;50.856;4.404;2022-11-20T01:26:52;20.77;;;16.48;;
7899;SDS011;3995;50.856;4.404;2022-11-20T01:29:22;20.90;;;17.67;;
7899;SDS011;3995;50.856;4.404;2022-11-20T01:31:50;19.17;;;16.58;;
7899;SDS011;3995;50.856;4.404;2022-11-20T01:34:18;19.67;;;17.67;;
7899;SDS011;3995;50.856;4.404;2022-11-20T01:36:47;19.85;;;17.63;;
7899;SDS011;3995;50.856;4.404;2022-11-20T01:39:15;20.23;;;17.83;;
7899;SDS011;3995;50.856;4.404;2022-11-20T01:41:44;20.13;;;16.73;;
7899;SDS011;3995;50.856;4.404;2022-11-20T01:44:50;19.13;;;17.08;;
7899;SDS011;3995;50.856;4.404;2022-11-20T01:47:32;18.30;;;16.40;;
7899;SDS011;3995;50.856;4.404;2022-11-20T01:50:05;18.65;;;16.80;;
7899;SDS011;3995;50.856;4.404;2022-11-20T01:52:39;18.52;;;16.55;;
7899;SDS011;3995;50.856;4.404;2022-11-20T01:55:12;20.90;;;16.55;;
7899;SDS011;3995;50.856;4.404;2022-11-20T01:57:44;18.52;;;16.55;;
7899;SDS011;3995;50.856;4.404;2022-11-20T02:00:17;20.15;;;17.70;;
7899;SDS011;3995;50.856;4.404;2022-11-20T02:02:47;21.77;;;18.58;;
7899;SDS011;3995;50.856;4.404;2022-11-20T02:05:19;21.02;;;18.92;;
7899;SDS011;3995;50.856;4.404;2022-11-20T02:07:50;21.02;;;18.60;;
7899;SDS011;3995;50.856;4.404;2022-11-20T02:10:18;21.08;;;18.77;;
7899;SDS011;3995;50.856;4.404;2022-11-20T02:12:46;21.00;;;18.70;;
7899;SDS011;3995;50.856;4.404;2022-11-20T02:15:33;21.88;;;19.50;;
7899;SDS011;3995;50.856;4.404;2022-11-20T02:18:00;25.10;;;19.30;;
7899;SDS011;3995;50.856;4.404;2022-11-20T02:20:28;26.08;;;19.55;;
7899;SDS011;3995;50.856;4.404;2022-11-20T02:22:57;21.20;;;18.73;;
7899;SDS011;3995;50.856;4.404;2022-11-20T02:25:31;27.35;;;20.67;;
7899;SDS011;3995;50.856;4.404;2022-11-20T02:27:59;25.17;;;19.10;;
7899;SDS011;3995;50.856;4.404;2022-11-20T02:30:27;22.63;;;19.77;;
7899;SDS011;3995;50.856;4.404;2022-11-20T02:32:54;28.00;;;20.60;;
7899;SDS011;3995;50.856;4.404;2022-11-20T02:35:39;23.65;;;19.90;;
7899;SDS011;3995;50.856;4.404;2022-11-20T02:38:08;23.33;;;20.70;;
7899;SDS011;3995;50.856;4.404;2022-11-20T02:40:38;26.58;;;19.50;;
7899;SDS011;3995;50.856;4.404;2022-11-20T02:43:06;24.55;;;18.70;;
7899;SDS011;3995;50.856;4.404;2022-11-20T02:45:35;20.08;;;17.58;;
7899;SDS011;3995;50.856;4.404;2022-11-20T02:48:03;21.02;;;18.83;;
7899;SDS011;3995;50.856;4.404;2022-11-20T02:50:32;19.88;;;17.88;;
7899;SDS011;3995;50.856;4.404;2022-11-20T02:52:59;20.90;;;17.38;;
7899;SDS011;3995;50.856;4.404;2022-11-20T02:55:27;17.95;;;16.02;;
7899;SDS011;3995;50.856;4.404;2022-11-20T02:57:56;17.08;;;15.27;;
7899;SDS011;3995;50.856;4.404;2022-11-20T03:00:24;19.90;;;16.90;;
7899;SDS011;3995;50.856;4.404;2022-11-20T03:02:51;20.10;;;17.98;;
7899;SDS011;3995;50.856;4.404;2022-11-20T03:05:18;18.52;;;16.08;;
7899;SDS011;3995;50.856;4.404;2022-11-20T03:07:46;25.80;;;19.23;;
7899;SDS011;3995;50.856;4.404;2022-11-20T03:10:14;23.35;;;20.00;;
7899;SDS011;3995;50.856;4.404;2022-11-20T03:12:41;21.98;;;17.55;;
7899;SDS011;3995;50.856;4.404;2022-11-20T03:15:11;18.30;;;16.40;;
7899;SDS011;3995;50.856;4.404;2022-11-20T03:17:38;19.70;;;17.23;;
7899;SDS011;3995;50.856;4.404;2022-11-20T03:20:06;16.73;;;14.73;;
7899;SDS011;3995;50.856;4.404;2022-11-20T03:22:34;16.20;;;14.40;;
7899;SDS011;3995;50.856;4.404;2022-11-20T03:25:02;13.77;;;12.15;;
7899;SDS011;3995;50.856;4.404;2022-11-20T03:27:32;14.82;;;12.40;;
7899;SDS011;3995;50.856;4.404;2022-11-20T03:30:00;14.35;;;12.13;;
7899;SDS011;3995;50.856;4.404;2022-11-20T03:32:29;15.23;;;13.57;;
7899;SDS011;3995;50.856;4.404;2022-11-20T03:34:57;16.50;;;14.48;;
7899;SDS011;3995;50.856;4.404;2022-11-20T03:37:24;20.88;;;15.98;;
7899;SDS011;3995;50.856;4.404;2022-11-20T03:39:51;18.58;;;16.35;;
7899;SDS011;3995;50.856;4.404;2022-11-20T03:42:18;18.52;;;16.10;;
7899;SDS011;3995;50.856;4.404;2022-11-20T03:45:03;20.77;;;17.35;;
7899;SDS011;3995;50.856;4.404;2022-11-20T03:47:32;19.45;;;15.90;;
7899;SDS011;3995;50.856;4.404;2022-11-20T03:50:00;19.10;;;16.17;;
7899;SDS011;3995;50.856;4.404;2022-11-20T03:52:28;18.02;;;16.08;;
7899;SDS011;3995;50.856;4.404;2022-11-20T03:54:55;18.80;;;16.63;;
7899;SDS011;3995;50.856;4.404;2022-11-20T03:57:23;18.25;;;15.07;;
7899;SDS011;3995;50.856;4.404;2022-11-20T03:59:50;19.48;;;17.35;;
7899;SDS011;3995;50.856;4.404;2022-11-20T04:02:17;19.48;;;17.35;;
7899;SDS011;3995;50.856;4.404;2022-11-20T04:04:46;19.85;;;17.50;;
7899;SDS011;3995;50.856;4.404;2022-11-20T04:07:14;19.65;;;17.15;;
7899;SDS011;3995;50.856;4.404;2022-11-20T04:09:41;24.27;;;18.92;;
7899;SDS011;3995;50.856;4.404;2022-11-20T04:12:08;20.65;;;18.45;;
7899;SDS011;3995;50.856;4.404;2022-11-20T04:14:35;22.38;;;18.40;;
7899;SDS011;3995;50.856;4.404;2022-11-20T04:17:03;20.42;;;18.15;;
7899;SDS011;3995;50.856;4.404;2022-11-20T04:19:30;21.13;;;18.45;;
7899;SDS011;3995;50.856;4.404;2022-11-20T04:21:59;24.17;;;19.85;;
7899;SDS011;3995;50.856;4.404;2022-11-20T04:24:26;25.55;;;20.23;;
7899;SDS011;3995;50.856;4.404;2022-11-20T04:26:55;22.92;;;18.90;;
7899;SDS011;3995;50.856;4.404;2022-11-20T04:29:22;26.17;;;20.90;;
7899;SDS011;3995;50.856;4.404;2022-11-20T04:31:51;25.73;;;20.88;;
7899;SDS011;3995;50.856;4.404;2022-11-20T04:34:18;26.83;;;21.77;;
7899;SDS011;3995;50.856;4.404;2022-11-20T04:36:46;28.42;;;21.73;;
7899;SDS011;3995;50.856;4.404;2022-11-20T04:39:15;26.30;;;20.98;;
7899;SDS011;3995;50.856;4.404;2022-11-20T04:41:42;25.92;;;20.80;;
7899;SDS011;3995;50.856;4.404;2022-11-20T04:44:10;26.88;;;20.80;;
7899;SDS011;3995;50.856;4.404;2022-11-20T04:46:38;29.80;;;22.55;;
7899;SDS011;3995;50.856;4.404;2022-11-20T04:49:07;32.95;;;25.55;;
7899;SDS011;3995;50.856;4.404;2022-11-20T04:51:38;30.98;;;21.88;;
7899;SDS011;3995;50.856;4.404;2022-11-20T04:54:05;26.50;;;22.80;;
7899;SDS011;3995;50.856;4.404;2022-11-20T04:56:34;29.58;;;22.40;;
7899;SDS011;3995;50.856;4.404;2022-11-20T04:59:01;25.77;;;20.35;;
7899;SDS011;3995;50.856;4.404;2022-11-20T05:01:28;30.30;;;22.85;;
7899;SDS011;3995;50.856;4.404;2022-11-20T05:03:57;26.83;;;21.08;;
7899;SDS011;3995;50.856;4.404;2022-11-20T05:06:24;28.88;;;22.33;;
7899;SDS011;3995;50.856;4.404;2022-11-20T05:08:52;23.35;;;20.35;;
7899;SDS011;3995;50.856;4.404;2022-11-20T05:11:19;28.40;;;21.27;;
7899;SDS011;3995;50.856;4.404;2022-11-20T05:13:49;23.80;;;20.00;;
7899;SDS011;3995;50.856;4.404;2022-11-20T05:16:18;24.73;;;20.55;;
7899;SDS011;3995;50.856;4.404;2022-11-20T05:18:47;28.02;;;21.50;;
7899;SDS011;3995;50.856;4.404;2022-11-20T05:21:14;27.30;;;21.77;;
7899;SDS011;3995;50.856;4.404;2022-11-20T05:23:42;26.05;;;19.83;;
7899;SDS011;3995;50.856;4.404;2022-11-20T05:26:12;25.75;;;20.45;;
7899;SDS011;3995;50.856;4.404;2022-11-20T05:28:41;29.33;;;21.90;;
7899;SDS011;3995;50.856;4.404;2022-11-20T05:31:11;26.45;;;21.10;;
7899;SDS011;3995;50.856;4.404;2022-11-20T05:33:40;29.02;;;21.02;;
7899;SDS011;3995;50.856;4.404;2022-11-20T05:36:09;27.73;;;21.65;;
7899;SDS011;3995;50.856;4.404;2022-11-20T05:38:41;27.27;;;21.92;;
7899;SDS011;3995;50.856;4.404;2022-11-20T05:41:10;29.92;;;22.23;;
7899;SDS011;3995;50.856;4.404;2022-11-20T05:43:39;27.67;;;20.88;;
7899;SDS011;3995;50.856;4.404;2022-11-20T05:46:08;25.63;;;20.90;;
7899;SDS011;3995;50.856;4.404;2022-11-20T05:48:38;30.92;;;22.33;;
7899;SDS011;3995;50.856;4.404;2022-11-20T05:51:07;30.40;;;23.50;;
7899;SDS011;3995;50.856;4.404;2022-11-20T05:53:36;31.30;;;23.08;;
7899;SDS011;3995;50.856;4.404;2022-11-20T05:56:05;29.73;;;22.60;;
7899;SDS011;3995;50.856;4.404;2022-11-20T05:58:35;32.47;;;22.85;;
7899;SDS011;3995;50.856;4.404;2022-11-20T06:01:04;27.27;;;22.42;;
7899;SDS011;3995;50.856;4.404;2022-11-20T06:03:36;28.52;;;22.80;;
7899;SDS011;3995;50.856;4.404;2022-11-20T06:06:04;27.92;;;22.23;;
7899;SDS011;3995;50.856;4.404;2022-11-20T06:08:35;27.35;;;21.90;;
7899;SDS011;3995;50.856;4.404;2022-11-20T06:11:03;30.42;;;22.27;;
7899;SDS011;3995;50.856;4.404;2022-11-20T06:13:30;27.08;;;21.38;;
7899;SDS011;3995;50.856;4.404;2022-11-20T06:15:58;25.75;;;21.05;;
7899;SDS011;3995;50.856;4.404;2022-11-20T06:18:25;28.52;;;20.58;;
7899;SDS011;3995;50.856;4.404;2022-11-20T06:21:02;26.67;;;21.23;;
7899;SDS011;3995;50.856;4.404;2022-11-20T06:23:31;26.42;;;21.45;;
7899;SDS011;3995;50.856;4.404;2022-11-20T06:26:00;26.05;;;20.67;;
7899;SDS011;3995;50.856;4.404;2022-11-20T06:28:28;27.88;;;22.27;;
7899;SDS011;3995;50.856;4.404;2022-11-20T06:30:55;28.67;;;22.83;;
7899;SDS011;3995;50.856;4.404;2022-11-20T06:33:22;29.35;;;23.42;;
7899;SDS011;3995;50.856;4.404;2022-11-20T06:35:50;34.85;;;23.90;;
7899;SDS011;3995;50.856;4.404;2022-11-20T06:38:19;33.50;;;22.58;;
7899;SDS011;3995;50.856;4.404;2022-11-20T06:40:47;28.63;;;22.73;;
7899;SDS011;3995;50.856;4.404;2022-11-20T06:43:14;30.33;;;22.98;;
7899;SDS011;3995;50.856;4.404;2022-11-20T06:45:41;32.20;;;25.38;;
7899;SDS011;3995;50.856;4.404;2022-11-20T06:48:11;32.80;;;23.15;;
7899;SDS011;3995;50.856;4.404;2022-11-20T06:50:38;33.03;;;23.02;;
7899;SDS011;3995;50.856;4.404;2022-11-20T06:53:05;30.77;;;22.75;;
7899;SDS011;3995;50.856;4.404;2022-11-20T06:55:34;31.60;;;23.63;;
7899;SDS011;3995;50.856;4.404;2022-11-20T06:58:03;33.30;;;24.23;;
7899;SDS011;3995;50.856;4.404;2022-11-20T07:00:30;29.20;;;23.23;;
7899;SDS011;3995;50.856;4.404;2022-11-20T07:03:02;30.23;;;23.13;;
7899;SDS011;3995;50.856;4.404;2022-11-20T07:05:29;30.52;;;23.00;;
7899;SDS011;3995;50.856;4.404;2022-11-20T07:07:57;29.98;;;23.13;;
7899;SDS011;3995;50.856;4.404;2022-11-20T07:10:35;31.92;;;22.92;;
7899;SDS011;3995;50.856;4.404;2022-11-20T07:13:02;31.80;;;22.50;;
7899;SDS011;3995;50.856;4.404;2022-11-20T07:15:32;32.05;;;23.20;;
7899;SDS011;3995;50.856;4.404;2022-11-20T07:17:59;30.02;;;22.73;;
7899;SDS011;3995;50.856;4.404;2022-11-20T07:20:27;28.58;;;22.23;;
7899;SDS011;3995;50.856;4.404;2022-11-20T07:22:55;28.80;;;21.60;;
7899;SDS011;3995;50.856;4.404;2022-11-20T07:25:23;31.63;;;23.65;;
7899;SDS011;3995;50.856;4.404;2022-11-20T07:27:59;30.90;;;22.48;;
7899;SDS011;3995;50.856;4.404;2022-11-20T07:30:27;32.67;;;23.52;;
7899;SDS011;3995;50.856;4.404;2022-11-20T07:32:54;31.88;;;22.60;;
7899;SDS011;3995;50.856;4.404;2022-11-20T07:35:22;30.67;;;22.45;;
7899;SDS011;3995;50.856;4.404;2022-11-20T07:37:50;32.10;;;23.38;;
7899;SDS011;3995;50.856;4.404;2022-11-20T07:40:18;33.35;;;23.92;;
7899;SDS011;3995;50.856;4.404;2022-11-20T07:42:48;32.42;;;23.48;;
7899;SDS011;3995;50.856;4.404;2022-11-20T07:45:18;31.83;;;23.15;;
7899;SDS011;3995;50.856;4.404;2022-11-20T07:47:47;35.83;;;24.98;;
7899;SDS011;3995;50.856;4.404;2022-11-20T07:50:14;31.20;;;23.83;;
7899;SDS011;3995;50.856;4.404;2022-11-20T07:52:42;33.00;;;24.08;;
7899;SDS011;3995;50.856;4.404;2022-11-20T07:55:09;32.95;;;23.80;;
7899;SDS011;3995;50.856;4.404;2022-11-20T07:57:37;32.63;;;23.55;;
7899;SDS011;3995;50.856;4.404;2022-11-20T08:00:07;37.08;;;25.52;;
7899;SDS011;3995;50.856;4.404;2022-11-20T08:02:38;38.40;;;26.58;;
7899;SDS011;3995;50.856;4.404;2022-11-20T08:05:05;36.35;;;24.83;;
7899;SDS011;3995;50.856;4.404;2022-11-20T08:07:37;37.30;;;25.35;;
7899;SDS011;3995;50.856;4.404;2022-11-20T08:10:05;35.42;;;24.65;;
7899;SDS011;3995;50.856;4.404;2022-11-20T08:12:34;34.47;;;25.30;;
7899;SDS011;3995;50.856;4.404;2022-11-20T08:15:18;37.83;;;23.40;;
7899;SDS011;3995;50.856;4.404;2022-11-20T08:17:48;35.70;;;24.85;;
7899;SDS011;3995;50.856;4.404;2022-11-20T08:20:15;35.83;;;24.20;;
7899;SDS011;3995;50.856;4.404;2022-11-20T08:22:43;35.45;;;25.63;;
7899;SDS011;3995;50.856;4.404;2022-11-20T08:25:10;32.22;;;23.48;;
7899;SDS011;3995;50.856;4.404;2022-11-20T08:27:38;36.67;;;23.10;;
7899;SDS011;3995;50.856;4.404;2022-11-20T08:30:07;37.90;;;24.95;;
7899;SDS011;3995;50.856;4.404;2022-11-20T08:32:35;31.75;;;22.35;;
7899;SDS011;3995;50.856;4.404;2022-11-20T08:35:05;35.05;;;22.60;;
7899;SDS011;3995;50.856;4.404;2022-11-20T08:37:33;36.67;;;23.88;;
7899;SDS011;3995;50.856;4.404;2022-11-20T08:40:07;34.25;;;23.05;;
7899;SDS011;3995;50.856;4.404;2022-11-20T08:42:36;38.70;;;24.25;;
7899;SDS011;3995;50.856;4.404;2022-11-20T08:45:03;34.75;;;23.40;;
7899;SDS011;3995;50.856;4.404;2022-11-20T08:47:32;35.22;;;23.20;;
7899;SDS011;3995;50.856;4.404;2022-11-20T08:49:59;33.72;;;23.50;;
7899;SDS011;3995;50.856;4.404;2022-11-20T08:52:29;34.58;;;23.73;;
7899;SDS011;3995;50.856;4.404;2022-11-20T08:54:57;37.00;;;22.90;;
7899;SDS011;3995;50.856;4.404;2022-11-20T08:57:25;34.38;;;21.67;;
7899;SDS011;3995;50.856;4.404;2022-11-20T08:59:52;34.38;;;22.73;;
7899;SDS011;3995;50.856;4.404;2022-11-20T09:02:20;32.95;;;21.95;;
7899;SDS011;3995;50.856;4.404;2022-11-20T09:04:48;31.20;;;21.73;;
7899;SDS011;3995;50.856;4.404;2022-11-20T09:07:15;32.78;;;20.58;;
7899;SDS011;3995;50.856;4.404;2022-11-20T09:09:44;32.85;;;20.90;;
7899;SDS011;3995;50.856;4.404;2022-11-20T09:12:12;28.45;;;19.15;;
7899;SDS011;3995;50.856;4.404;2022-11-20T09:14:40;28.73;;;19.00;;
7899;SDS011;3995;50.856;4.404;2022-11-20T09:17:09;29.23;;;19.27;;
7899;SDS011;3995;50.856;4.404;2022-11-20T09:19:38;25.83;;;19.42;;
7899;SDS011;3995;50.856;4.404;2022-11-20T09:22:06;24.45;;;19.33;;
7899;SDS011;3995;50.856;4.404;2022-11-20T09:24:34;25.30;;;17.48;;
7899;SDS011;3995;50.856;4.404;2022-11-20T09:27:03;25.08;;;18.40;;
7899;SDS011;3995;50.856;4.404;2022-11-20T09:29:33;25.42;;;18.35;;
7899;SDS011;3995;50.856;4.404;2022-11-20T09:32:00;24.00;;;17.05;;
7899;SDS011;3995;50.856;4.404;2022-11-20T09:34:27;27.02;;;17.40;;
7899;SDS011;3995;50.856;4.404;2022-11-20T09:36:55;24.20;;;16.40;;
7899;SDS011;3995;50.856;4.404;2022-11-20T09:39:23;20.35;;;15.35;;
7899;SDS011;3995;50.856;4.404;2022-11-20T09:45:02;24.73;;;15.68;;
7899;SDS011;3995;50.856;4.404;2022-11-20T09:47:46;18.73;;;14.48;;
7899;SDS011;3995;50.856;4.404;2022-11-20T09:50:26;17.05;;;13.60;;
7899;SDS011;3995;50.856;4.404;2022-11-20T09:53:06;20.30;;;13.95;;
7899;SDS011;3995;50.856;4.404;2022-11-20T09:55:42;19.17;;;13.70;;
7899;SDS011;3995;50.856;4.404;2022-11-20T09:58:14;16.35;;;12.35;;
7899;SDS011;3995;50.856;4.404;2022-11-20T10:00:46;16.58;;;12.38;;
7899;SDS011;3995;50.856;4.404;2022-11-20T10:03:16;15.95;;;11.82;;
7899;SDS011;3995;50.856;4.404;2022-11-20T10:05:49;17.17;;;12.10;;
7899;SDS011;3995;50.856;4.404;2022-11-20T10:08:21;15.75;;;11.88;;
7899;SDS011;3995;50.856;4.404;2022-11-20T10:10:52;14.88;;;12.02;;
7899;SDS011;3995;50.856;4.404;2022-11-20T10:13:30;15.15;;;11.20;;
7899;SDS011;3995;50.856;4.404;2022-11-20T10:16:13;12.95;;;10.32;;
7899;SDS011;3995;50.856;4.404;2022-11-20T10:18:53;15.57;;;10.60;;
7899;SDS011;3995;50.856;4.404;2022-11-20T10:21:30;14.35;;;9.93;;
7899;SDS011;3995;50.856;4.404;2022-11-20T10:24:16;12.00;;;8.73;;
7899;SDS011;3995;50.856;4.404;2022-11-20T10:26:59;13.65;;;8.35;;
7899;SDS011;3995;50.856;4.404;2022-11-20T10:29:38;10.35;;;8.30;;
7899;SDS011;3995;50.856;4.404;2022-11-20T10:32:10;13.95;;;8.43;;
7899;SDS011;3995;50.856;4.404;2022-11-20T10:34:43;11.55;;;7.60;;
7899;SDS011;3995;50.856;4.404;2022-11-20T10:37:18;12.60;;;7.85;;
7899;SDS011;3995;50.856;4.404;2022-11-20T10:39:50;8.75;;;5.97;;
7899;SDS011;3995;50.856;4.404;2022-11-20T10:42:26;6.35;;;5.75;;
7899;SDS011;3995;50.856;4.404;2022-11-20T10:45:02;9.38;;;6.15;;
7899;SDS011;3995;50.856;4.404;2022-11-20T10:47:42;8.30;;;6.45;;
7899;SDS011;3995;50.856;4.404;2022-11-20T10:50:11;7.50;;;5.82;;
7899;SDS011;3995;50.856;4.404;2022-11-20T10:52:43;8.40;;;5.80;;
7899;SDS011;3995;50.856;4.404;2022-11-20T10:55:25;6.00;;;4.68;;
7899;SDS011;3995;50.856;4.404;2022-11-20T10:57:59;8.85;;;4.85;;
7899;SDS011;3995;50.856;4.404;2022-11-20T11:00:33;9.10;;;5.30;;
7899;SDS011;3995;50.856;4.404;2022-11-20T11:03:01;5.78;;;4.03;;
7899;SDS011;3995;50.856;4.404;2022-11-20T11:05:33;5.70;;;4.13;;
7899;SDS011;3995;50.856;4.404;2022-11-20T11:08:04;7.18;;;4.43;;
7899;SDS011;3995;50.856;4.404;2022-11-20T11:10:39;5.68;;;4.13;;
7899;SDS011;3995;50.856;4.404;2022-11-20T11:13:18;7.00;;;4.03;;
7899;SDS011;3995;50.856;4.404;2022-11-20T11:15:49;5.93;;;3.90;;
7899;SDS011;3995;50.856;4.404;2022-11-20T11:18:24;6.68;;;3.90;;
7899;SDS011;3995;50.856;4.404;2022-11-20T11:20:53;13.02;;;7.82;;
7899;SDS011;3995;50.856;4.404;2022-11-20T11:23:28;6.38;;;3.20;;
7899;SDS011;3995;50.856;4.404;2022-11-20T11:25:58;6.50;;;3.53;;
7899;SDS011;3995;50.856;4.404;2022-11-20T11:28:26;7.20;;;3.53;;
7899;SDS011;3995;50.856;4.404;2022-11-20T11:30:56;4.80;;;2.83;;
7899;SDS011;3995;50.856;4.404;2022-11-20T11:33:24;5.13;;;3.00;;
7899;SDS011;3995;50.856;4.404;2022-11-20T11:35:53;6.35;;;2.30;;
7899;SDS011;3995;50.856;4.404;2022-11-20T11:38:27;6.22;;;3.38;;
7899;SDS011;3995;50.856;4.404;2022-11-20T11:40:57;7.65;;;3.08;;
7899;SDS011;3995;50.856;4.404;2022-11-20T11:43:25;3.05;;;2.60;;
7899;SDS011;3995;50.856;4.404;2022-11-20T11:46:24;10.00;;;3.50;;
7899;SDS011;3995;50.856;4.404;2022-11-20T11:48:56;6.15;;;3.00;;
7899;SDS011;3995;50.856;4.404;2022-11-20T11:51:25;7.32;;;2.72;;
7899;SDS011;3995;50.856;4.404;2022-11-20T11:53:57;6.32;;;2.60;;
7899;SDS011;3995;50.856;4.404;2022-11-20T11:56:27;6.63;;;2.75;;
7899;SDS011;3995;50.856;4.404;2022-11-20T11:59:00;5.60;;;2.80;;
7899;SDS011;3995;50.856;4.404;2022-11-20T12:01:37;7.53;;;3.20;;
7899;SDS011;3995;50.856;4.404;2022-11-20T12:04:12;6.20;;;2.88;;
7899;SDS011;3995;50.856;4.404;2022-11-20T12:06:42;4.60;;;2.58;;
7899;SDS011;3995;50.856;4.404;2022-11-20T12:09:14;7.00;;;3.15;;
7899;SDS011;3995;50.856;4.404;2022-11-20T12:11:43;3.22;;;2.50;;
7899;SDS011;3995;50.856;4.404;2022-11-20T12:14:16;5.80;;;2.72;;
7899;SDS011;3995;50.856;4.404;2022-11-20T12:16:50;3.47;;;2.00;;
7899;SDS011;3995;50.856;4.404;2022-11-20T12:19:20;4.72;;;2.08;;
7899;SDS011;3995;50.856;4.404;2022-11-20T12:21:51;5.35;;;3.17;;
7899;SDS011;3995;50.856;4.404;2022-11-20T12:24:36;7.07;;;2.95;;
7899;SDS011;3995;50.856;4.404;2022-11-20T12:27:21;5.90;;;2.67;;
7899;SDS011;3995;50.856;4.404;2022-11-20T12:30:10;9.70;;;3.03;;
7899;SDS011;3995;50.856;4.404;2022-11-20T12:35:44;7.80;;;2.85;;
7899;SDS011;3995;50.856;4.404;2022-11-20T12:38:32;4.35;;;2.15;;
7899;SDS011;3995;50.856;4.404;2022-11-20T12:41:11;5.68;;;2.70;;
7899;SDS011;3995;50.856;4.404;2022-11-20T12:44:09;4.38;;;2.97;;
7899;SDS011;3995;50.856;4.404;2022-11-20T12:47:10;8.98;;;2.90;;
7899;SDS011;3995;50.856;4.404;2022-11-20T12:49:46;4.90;;;2.57;;
7899;SDS011;3995;50.856;4.404;2022-11-20T12:52:24;5.47;;;2.47;;
7899;SDS011;3995;50.856;4.404;2022-11-20T12:57:53;7.20;;;2.90;;
7899;SDS011;3995;50.856;4.404;2022-11-20T13:00:24;7.97;;;3.05;;
7899;SDS011;3995;50.856;4.404;2022-11-20T13:03:00;6.18;;;2.85;;
7899;SDS011;3995;50.856;4.404;2022-11-20T13:05:47;4.35;;;2.60;;
7899;SDS011;3995;50.856;4.404;2022-11-20T13:08:22;4.55;;;2.50;;
7899;SDS011;3995;50.856;4.404;2022-11-20T13:10:52;3.60;;;2.28;;
7899;SDS011;3995;50.856;4.404;2022-11-20T13:13:29;5.97;;;2.90;;
7899;SDS011;3995;50.856;4.404;2022-11-20T13:16:03;5.35;;;2.90;;
7899;SDS011;3995;50.856;4.404;2022-11-20T13:18:34;6.10;;;2.70;;
7899;SDS011;3995;50.856;4.404;2022-11-20T13:21:13;4.70;;;2.67;;
7899;SDS011;3995;50.856;4.404;2022-11-20T13:23:44;4.40;;;2.20;;
7899;SDS011;3995;50.856;4.404;2022-11-20T13:26:14;5.10;;;2.42;;
7899;SDS011;3995;50.856;4.404;2022-11-20T13:28:44;4.07;;;2.15;;
7899;SDS011;3995;50.856;4.404;2022-11-20T13:31:23;4.22;;;2.08;;
7899;SDS011;3995;50.856;4.404;2022-11-20T13:33:55;2.80;;;2.08;;
7899;SDS011;3995;50.856;4.404;2022-11-20T13:36:25;3.78;;;2.40;;
7899;SDS011;3995;50.856;4.404;2022-11-20T13:38:57;4.75;;;2.50;;
7899;SDS011;3995;50.856;4.404;2022-11-20T13:41:25;3.22;;;2.35;;
7899;SDS011;3995;50.856;4.404;2022-11-20T13:43:54;3.35;;;2.50;;
7899;SDS011;3995;50.856;4.404;2022-11-20T13:46:34;2.45;;;2.25;;
7899;SDS011;3995;50.856;4.404;2022-11-20T13:49:06;4.32;;;2.10;;
7899;SDS011;3995;50.856;4.404;2022-11-20T13:51:36;3.45;;;2.30;;
7899;SDS011;3995;50.856;4.404;2022-11-20T13:54:14;3.30;;;2.00;;
7899;SDS011;3995;50.856;4.404;2022-11-20T13:57:04;3.70;;;2.55;;
7899;SDS011;3995;50.856;4.404;2022-11-20T13:59:44;3.00;;;2.22;;
7899;SDS011;3995;50.856;4.404;2022-11-20T14:02:20;3.45;;;2.45;;
7899;SDS011;3995;50.856;4.404;2022-11-20T14:04:52;2.97;;;2.25;;
7899;SDS011;3995;50.856;4.404;2022-11-20T14:07:21;4.50;;;2.38;;
7899;SDS011;3995;50.856;4.404;2022-11-20T14:09:53;4.82;;;2.13;;
7899;SDS011;3995;50.856;4.404;2022-11-20T14:12:22;5.68;;;2.40;;
7899;SDS011;3995;50.856;4.404;2022-11-20T14:14:54;2.28;;;1.95;;
7899;SDS011;3995;50.856;4.404;2022-11-20T14:17:22;2.05;;;1.85;;
7899;SDS011;3995;50.856;4.404;2022-11-20T14:19:57;2.20;;;1.80;;
7899;SDS011;3995;50.856;4.404;2022-11-20T14:22:27;2.30;;;1.90;;
7899;SDS011;3995;50.856;4.404;2022-11-20T14:25:03;3.55;;;2.05;;
7899;SDS011;3995;50.856;4.404;2022-11-20T14:27:33;3.53;;;1.98;;
7899;SDS011;3995;50.856;4.404;2022-11-20T14:30:02;9.18;;;1.85;;
7899;SDS011;3995;50.856;4.404;2022-11-20T14:32:31;2.35;;;1.88;;
7899;SDS011;3995;50.856;4.404;2022-11-20T14:35:02;2.00;;;1.70;;
7899;SDS011;3995;50.856;4.404;2022-11-20T14:37:36;2.95;;;2.00;;
7899;SDS011;3995;50.856;4.404;2022-11-20T14:40:20;2.45;;;2.08;;
7899;SDS011;3995;50.856;4.404;2022-11-20T14:42:49;5.90;;;2.10;;
7899;SDS011;3995;50.856;4.404;2022-11-20T14:45:17;2.70;;;2.20;;
7899;SDS011;3995;50.856;4.404;2022-11-20T14:47:45;3.10;;;2.15;;
7899;SDS011;3995;50.856;4.404;2022-11-20T14:50:14;2.90;;;1.98;;
7899;SDS011;3995;50.856;4.404;2022-11-20T14:52:52;2.70;;;2.03;;
7899;SDS011;3995;50.856;4.404;2022-11-20T14:55:28;3.15;;;2.00;;
7899;SDS011;3995;50.856;4.404;2022-11-20T14:57:57;3.67;;;2.35;;
7899;SDS011;3995;50.856;4.404;2022-11-20T15:00:26;2.88;;;2.05;;
7899;SDS011;3995;50.856;4.404;2022-11-20T15:02:54;2.85;;;2.10;;
7899;SDS011;3995;50.856;4.404;2022-11-20T15:05:22;2.78;;;2.13;;
7899;SDS011;3995;50.856;4.404;2022-11-20T15:07:52;3.63;;;2.70;;
7899;SDS011;3995;50.856;4.404;2022-11-20T15:10:32;3.65;;;2.10;;
7899;SDS011;3995;50.856;4.404;2022-11-20T15:13:01;2.38;;;1.70;;
7899;SDS011;3995;50.856;4.404;2022-11-20T15:15:31;2.40;;;1.90;;
7899;SDS011;3995;50.856;4.404;2022-11-20T15:18:12;2.10;;;1.90;;
7899;SDS011;3995;50.856;4.404;2022-11-20T15:20:41;3.42;;;1.70;;
7899;SDS011;3995;50.856;4.404;2022-11-20T15:23:10;4.43;;;1.60;;
7899;SDS011;3995;50.856;4.404;2022-11-20T15:25:41;4.18;;;2.17;;
7899;SDS011;3995;50.856;4.404;2022-11-20T15:28:13;4.13;;;1.90;;